sensor_id;sensor_type;location;lat;lon;timestamp;temperature;humidity
5200;DHT22;2619;47.868;11.892;2022-08-19T00:00:08;19.60;99.90
5200;DHT22;2619;47.868;11.892;2022-08-19T00:02:35;19.60;99.90
5200;DHT22;2619;47.868;11.892;2022-08-19T00:05:02;19.60;99.90
5200;DHT22;2619;47.868;11.892;2022-08-19T00:07:28;19.50;99.90
5200;DHT22;2619;47.868;11.892;2022-08-19T00:09:54;19.50;99.90
5200;DHT22;2619;47.868;11.892;2022-08-19T00:12:19;19.50;99.90
5200;DHT22;2619;47.868;11.892;2022-08-19T00:14:45;19.50;99.90
5200;DHT22;2619;47.868;11.892;2022-08-19T00:17:11;19.40;99.90
5200;DHT22;2619;47.868;11.892;2022-08-19T00:19:38;19.40;99.90
5200;DHT22;2619;47.868;11.892;2022-08-19T00:22:04;19.30;99.90
5200;DHT22;2619;47.868;11.892;2022-08-19T00:24:30;19.40;99.90
5200;DHT22;2619;47.868;11.892;2022-08-19T00:26:56;19.30;99.90
5200;DHT22;2619;47.868;11.892;2022-08-19T00:29:24;19.30;99.90
5200;DHT22;2619;47.868;11.892;2022-08-19T00:31:51;19.30;99.90
5200;DHT22;2619;47.868;11.892;2022-08-19T00:34:20;19.20;99.90
5200;DHT22;2619;47.868;11.892;2022-08-19T00:36:46;19.20;99.90
5200;DHT22;2619;47.868;11.892;2022-08-19T00:39:13;19.10;99.90
5200;DHT22;2619;47.868;11.892;2022-08-19T00:41:39;19.00;99.90
5200;DHT22;2619;47.868;11.892;2022-08-19T00:44:11;18.90;99.90
5200;DHT22;2619;47.868;11.892;2022-08-19T00:46:41;18.90;99.90
5200;DHT22;2619;47.868;11.892;2022-08-19T00:49:11;18.80;99.90
5200;DHT22;2619;47.868;11.892;2022-08-19T00:51:41;18.70;99.90
5200;DHT22;2619;47.868;11.892;2022-08-19T00:54:07;18.70;99.90
5200;DHT22;2619;47.868;11.892;2022-08-19T00:56:34;18.70;99.90
5200;DHT22;2619;47.868;11.892;2022-08-19T00:59:01;18.60;99.90
5200;DHT22;2619;47.868;11.892;2022-08-19T01:01:27;18.60;99.90
5200;DHT22;2619;47.868;11.892;2022-08-19T01:03:53;18.50;99.90
5200;DHT22;2619;47.868;11.892;2022-08-19T01:06:19;18.50;99.90
5200;DHT22;2619;47.868;11.892;2022-08-19T01:08:44;18.50;99.90
5200;DHT22;2619;47.868;11.892;2022-08-19T01:11:11;18.60;99.90
5200;DHT22;2619;47.868;11.892;2022-08-19T01:13:37;18.50;99.90
5200;DHT22;2619;47.868;11.892;2022-08-19T01:16:06;18.50;99.90
5200;DHT22;2619;47.868;11.892;2022-08-19T01:18:36;18.40;99.90
5200;DHT22;2619;47.868;11.892;2022-08-19T01:21:09;18.40;99.90
5200;DHT22;2619;47.868;11.892;2022-08-19T01:23:36;18.40;99.90
5200;DHT22;2619;47.868;11.892;2022-08-19T01:26:14;18.30;99.90
5200;DHT22;2619;47.868;11.892;2022-08-19T01:28:41;18.30;99.90
5200;DHT22;2619;47.868;11.892;2022-08-19T01:31:15;18.30;99.90
5200;DHT22;2619;47.868;11.892;2022-08-19T01:33:41;18.30;99.90
5200;DHT22;2619;47.868;11.892;2022-08-19T01:36:16;18.20;99.90
5200;DHT22;2619;47.868;11.892;2022-08-19T01:38:47;18.20;99.90
5200;DHT22;2619;47.868;11.892;2022-08-19T01:41:13;18.20;99.90
5200;DHT22;2619;47.868;11.892;2022-08-19T01:43:40;18.20;99.90
5200;DHT22;2619;47.868;11.892;2022-08-19T01:46:06;18.10;99.90
5200;DHT22;2619;47.868;11.892;2022-08-19T01:48:40;18.10;99.90
5200;DHT22;2619;47.868;11.892;2022-08-19T01:51:08;18.10;99.90
5200;DHT22;2619;47.868;11.892;2022-08-19T01:53:34;18.00;99.90
5200;DHT22;2619;47.868;11.892;2022-08-19T01:56:00;18.00;99.90
5200;DHT22;2619;47.868;11.892;2022-08-19T01:58:31;18.00;99.90
5200;DHT22;2619;47.868;11.892;2022-08-19T02:00:58;18.00;99.90
5200;DHT22;2619;47.868;11.892;2022-08-19T02:03:24;18.00;99.90
5200;DHT22;2619;47.868;11.892;2022-08-19T02:05:55;18.00;99.90
5200;DHT22;2619;47.868;11.892;2022-08-19T02:08:21;18.00;99.90
5200;DHT22;2619;47.868;11.892;2022-08-19T02:10:47;18.00;99.90
5200;DHT22;2619;47.868;11.892;2022-08-19T02:13:13;18.00;99.90
5200;DHT22;2619;47.868;11.892;2022-08-19T02:15:39;18.00;99.90
5200;DHT22;2619;47.868;11.892;2022-08-19T02:18:05;18.00;99.90
5200;DHT22;2619;47.868;11.892;2022-08-19T02:20:33;18.10;99.90
5200;DHT22;2619;47.868;11.892;2022-08-19T02:22:59;18.10;99.90
5200;DHT22;2619;47.868;11.892;2022-08-19T02:25:26;18.10;99.90
5200;DHT22;2619;47.868;11.892;2022-08-19T02:27:52;18.10;99.90
5200;DHT22;2619;47.868;11.892;2022-08-19T02:30:19;18.10;99.90
5200;DHT22;2619;47.868;11.892;2022-08-19T02:32:45;18.10;99.90
5200;DHT22;2619;47.868;11.892;2022-08-19T02:35:13;18.20;99.90
5200;DHT22;2619;47.868;11.892;2022-08-19T02:37:40;18.20;99.90
5200;DHT22;2619;47.868;11.892;2022-08-19T02:40:24;18.20;99.90
5200;DHT22;2619;47.868;11.892;2022-08-19T02:42:50;18.20;99.90
5200;DHT22;2619;47.868;11.892;2022-08-19T02:45:16;18.20;99.90
5200;DHT22;2619;47.868;11.892;2022-08-19T02:47:41;18.20;99.90
5200;DHT22;2619;47.868;11.892;2022-08-19T02:50:08;18.20;99.90
5200;DHT22;2619;47.868;11.892;2022-08-19T02:52:34;18.20;99.90
5200;DHT22;2619;47.868;11.892;2022-08-19T02:55:00;18.30;99.90
5200;DHT22;2619;47.868;11.892;2022-08-19T02:57:27;18.30;99.90
5200;DHT22;2619;47.868;11.892;2022-08-19T02:59:53;18.30;99.90
5200;DHT22;2619;47.868;11.892;2022-08-19T03:02:19;18.30;99.90
5200;DHT22;2619;47.868;11.892;2022-08-19T03:04:45;18.30;99.90
5200;DHT22;2619;47.868;11.892;2022-08-19T03:07:14;18.30;99.90
5200;DHT22;2619;47.868;11.892;2022-08-19T03:09:40;18.30;99.90
5200;DHT22;2619;47.868;11.892;2022-08-19T03:12:07;18.30;99.90
5200;DHT22;2619;47.868;11.892;2022-08-19T03:14:34;18.20;99.90
5200;DHT22;2619;47.868;11.892;2022-08-19T03:17:01;18.30;99.90
5200;DHT22;2619;47.868;11.892;2022-08-19T03:19:26;18.30;99.90
5200;DHT22;2619;47.868;11.892;2022-08-19T03:21:52;18.30;99.90
5200;DHT22;2619;47.868;11.892;2022-08-19T03:24:18;18.30;99.90
5200;DHT22;2619;47.868;11.892;2022-08-19T03:26:53;18.30;99.90
5200;DHT22;2619;47.868;11.892;2022-08-19T03:29:23;18.30;99.90
5200;DHT22;2619;47.868;11.892;2022-08-19T03:31:49;18.30;99.90
5200;DHT22;2619;47.868;11.892;2022-08-19T03:34:24;18.20;99.90
5200;DHT22;2619;47.868;11.892;2022-08-19T03:36:55;18.30;99.90
5200;DHT22;2619;47.868;11.892;2022-08-19T03:39:21;18.30;99.90
5200;DHT22;2619;47.868;11.892;2022-08-19T03:41:48;18.30;99.90
5200;DHT22;2619;47.868;11.892;2022-08-19T03:44:18;18.30;99.90
5200;DHT22;2619;47.868;11.892;2022-08-19T03:46:47;18.30;99.90
5200;DHT22;2619;47.868;11.892;2022-08-19T03:49:13;18.30;99.90
5200;DHT22;2619;47.868;11.892;2022-08-19T03:51:39;18.30;99.90
5200;DHT22;2619;47.868;11.892;2022-08-19T03:54:08;18.30;99.90
5200;DHT22;2619;47.868;11.892;2022-08-19T03:56:36;18.40;99.90
5200;DHT22;2619;47.868;11.892;2022-08-19T03:59:03;18.40;99.90
5200;DHT22;2619;47.868;11.892;2022-08-19T04:01:29;18.40;99.90
5200;DHT22;2619;47.868;11.892;2022-08-19T04:03:56;18.40;99.90
5200;DHT22;2619;47.868;11.892;2022-08-19T04:06:29;18.40;99.90
5200;DHT22;2619;47.868;11.892;2022-08-19T04:08:59;18.40;99.90
5200;DHT22;2619;47.868;11.892;2022-08-19T04:11:27;18.50;99.90
5200;DHT22;2619;47.868;11.892;2022-08-19T04:13:54;18.50;99.90
5200;DHT22;2619;47.868;11.892;2022-08-19T04:16:22;18.50;99.90
5200;DHT22;2619;47.868;11.892;2022-08-19T04:18:48;18.50;99.90
5200;DHT22;2619;47.868;11.892;2022-08-19T04:21:21;18.40;99.90
5200;DHT22;2619;47.868;11.892;2022-08-19T04:23:47;18.40;99.90
5200;DHT22;2619;47.868;11.892;2022-08-19T04:26:19;18.50;99.90
5200;DHT22;2619;47.868;11.892;2022-08-19T04:28:45;18.60;99.90
5200;DHT22;2619;47.868;11.892;2022-08-19T04:31:23;18.60;99.90
5200;DHT22;2619;47.868;11.892;2022-08-19T04:33:53;18.60;99.90
5200;DHT22;2619;47.868;11.892;2022-08-19T04:36:22;18.60;99.90
5200;DHT22;2619;47.868;11.892;2022-08-19T04:38:49;18.50;99.90
5200;DHT22;2619;47.868;11.892;2022-08-19T04:41:16;18.50;99.90
5200;DHT22;2619;47.868;11.892;2022-08-19T04:44:00;18.40;99.90
5200;DHT22;2619;47.868;11.892;2022-08-19T04:46:27;18.40;99.90
5200;DHT22;2619;47.868;11.892;2022-08-19T04:48:55;18.40;99.90
5200;DHT22;2619;47.868;11.892;2022-08-19T04:51:23;18.30;99.90
5200;DHT22;2619;47.868;11.892;2022-08-19T04:53:49;18.30;99.90
5200;DHT22;2619;47.868;11.892;2022-08-19T04:56:17;18.20;99.90
5200;DHT22;2619;47.868;11.892;2022-08-19T04:58:44;18.20;99.90
5200;DHT22;2619;47.868;11.892;2022-08-19T05:01:17;18.20;99.90
5200;DHT22;2619;47.868;11.892;2022-08-19T05:03:43;18.10;99.90
5200;DHT22;2619;47.868;11.892;2022-08-19T05:06:12;18.10;99.90
5200;DHT22;2619;47.868;11.892;2022-08-19T05:08:40;18.10;99.90
5200;DHT22;2619;47.868;11.892;2022-08-19T05:11:14;17.90;99.90
5200;DHT22;2619;47.868;11.892;2022-08-19T05:13:41;17.70;99.90
5200;DHT22;2619;47.868;11.892;2022-08-19T05:16:09;17.70;99.90
5200;DHT22;2619;47.868;11.892;2022-08-19T05:18:35;17.70;99.90
5200;DHT22;2619;47.868;11.892;2022-08-19T05:21:20;17.80;99.90
5200;DHT22;2619;47.868;11.892;2022-08-19T05:24:06;17.80;99.90
5200;DHT22;2619;47.868;11.892;2022-08-19T05:26:36;17.90;99.90
5200;DHT22;2619;47.868;11.892;2022-08-19T05:29:02;17.90;99.90
5200;DHT22;2619;47.868;11.892;2022-08-19T05:31:28;17.90;99.90
5200;DHT22;2619;47.868;11.892;2022-08-19T05:33:54;17.70;99.90
5200;DHT22;2619;47.868;11.892;2022-08-19T05:36:21;17.70;99.90
5200;DHT22;2619;47.868;11.892;2022-08-19T05:38:47;17.70;99.90
5200;DHT22;2619;47.868;11.892;2022-08-19T05:41:14;17.70;99.90
5200;DHT22;2619;47.868;11.892;2022-08-19T05:43:40;17.80;99.90
5200;DHT22;2619;47.868;11.892;2022-08-19T05:46:07;17.80;99.90
5200;DHT22;2619;47.868;11.892;2022-08-19T05:48:35;17.80;99.90
5200;DHT22;2619;47.868;11.892;2022-08-19T05:51:05;17.90;99.90
5200;DHT22;2619;47.868;11.892;2022-08-19T05:53:32;17.90;99.90
5200;DHT22;2619;47.868;11.892;2022-08-19T05:56:07;18.00;99.90
5200;DHT22;2619;47.868;11.892;2022-08-19T05:58:34;18.00;99.90
5200;DHT22;2619;47.868;11.892;2022-08-19T06:01:00;18.00;99.90
5200;DHT22;2619;47.868;11.892;2022-08-19T06:03:30;18.00;99.90
5200;DHT22;2619;47.868;11.892;2022-08-19T06:05:57;18.00;99.90
5200;DHT22;2619;47.868;11.892;2022-08-19T06:08:25;18.00;99.90
5200;DHT22;2619;47.868;11.892;2022-08-19T06:10:50;18.00;99.90
5200;DHT22;2619;47.868;11.892;2022-08-19T06:13:16;18.10;99.90
5200;DHT22;2619;47.868;11.892;2022-08-19T06:15:42;18.10;99.90
5200;DHT22;2619;47.868;11.892;2022-08-19T06:18:09;18.10;99.90
5200;DHT22;2619;47.868;11.892;2022-08-19T06:20:35;18.10;99.90
5200;DHT22;2619;47.868;11.892;2022-08-19T06:23:00;17.90;99.90
5200;DHT22;2619;47.868;11.892;2022-08-19T06:25:26;18.00;99.90
5200;DHT22;2619;47.868;11.892;2022-08-19T06:27:52;18.10;99.90
5200;DHT22;2619;47.868;11.892;2022-08-19T06:30:18;18.20;99.90
5200;DHT22;2619;47.868;11.892;2022-08-19T06:32:44;18.20;99.90
5200;DHT22;2619;47.868;11.892;2022-08-19T06:35:10;18.20;99.90
5200;DHT22;2619;47.868;11.892;2022-08-19T06:37:37;18.20;99.90
5200;DHT22;2619;47.868;11.892;2022-08-19T06:40:03;18.30;99.90
5200;DHT22;2619;47.868;11.892;2022-08-19T06:42:29;18.40;99.90
5200;DHT22;2619;47.868;11.892;2022-08-19T06:44:55;18.60;99.90
5200;DHT22;2619;47.868;11.892;2022-08-19T06:47:21;18.70;99.90
5200;DHT22;2619;47.868;11.892;2022-08-19T06:49:47;18.70;99.90
5200;DHT22;2619;47.868;11.892;2022-08-19T06:52:13;18.70;99.90
5200;DHT22;2619;47.868;11.892;2022-08-19T06:54:40;18.60;99.90
5200;DHT22;2619;47.868;11.892;2022-08-19T06:57:07;18.80;99.90
5200;DHT22;2619;47.868;11.892;2022-08-19T06:59:34;18.90;99.90
5200;DHT22;2619;47.868;11.892;2022-08-19T07:02:04;18.90;99.90
5200;DHT22;2619;47.868;11.892;2022-08-19T07:04:32;19.00;99.90
5200;DHT22;2619;47.868;11.892;2022-08-19T07:07:03;19.10;99.90
5200;DHT22;2619;47.868;11.892;2022-08-19T07:09:33;19.40;99.90
5200;DHT22;2619;47.868;11.892;2022-08-19T07:11:59;19.60;99.90
5200;DHT22;2619;47.868;11.892;2022-08-19T07:14:27;19.70;99.90
5200;DHT22;2619;47.868;11.892;2022-08-19T07:16:55;19.90;99.90
5200;DHT22;2619;47.868;11.892;2022-08-19T07:19:22;20.10;99.90
5200;DHT22;2619;47.868;11.892;2022-08-19T07:21:50;20.10;99.90
5200;DHT22;2619;47.868;11.892;2022-08-19T07:24:19;20.40;99.90
5200;DHT22;2619;47.868;11.892;2022-08-19T07:26:45;20.90;99.90
5200;DHT22;2619;47.868;11.892;2022-08-19T07:29:12;21.60;99.90
5200;DHT22;2619;47.868;11.892;2022-08-19T07:31:38;21.80;99.90
5200;DHT22;2619;47.868;11.892;2022-08-19T07:34:06;22.10;99.90
5200;DHT22;2619;47.868;11.892;2022-08-19T07:36:38;22.40;99.90
5200;DHT22;2619;47.868;11.892;2022-08-19T07:39:08;22.60;99.90
5200;DHT22;2619;47.868;11.892;2022-08-19T07:41:35;22.80;99.90
5200;DHT22;2619;47.868;11.892;2022-08-19T07:44:03;22.90;99.90
5200;DHT22;2619;47.868;11.892;2022-08-19T07:46:31;22.70;99.90
5200;DHT22;2619;47.868;11.892;2022-08-19T07:48:58;22.30;99.90
5200;DHT22;2619;47.868;11.892;2022-08-19T07:51:24;21.70;99.90
5200;DHT22;2619;47.868;11.892;2022-08-19T07:53:50;21.50;99.90
5200;DHT22;2619;47.868;11.892;2022-08-19T07:56:18;21.50;99.90
5200;DHT22;2619;47.868;11.892;2022-08-19T07:58:45;21.40;99.90
5200;DHT22;2619;47.868;11.892;2022-08-19T08:01:14;21.60;99.90
5200;DHT22;2619;47.868;11.892;2022-08-19T08:03:41;21.90;99.90
5200;DHT22;2619;47.868;11.892;2022-08-19T08:06:25;22.10;99.90
5200;DHT22;2619;47.868;11.892;2022-08-19T08:09:10;22.40;99.90
5200;DHT22;2619;47.868;11.892;2022-08-19T08:11:57;22.50;99.90
5200;DHT22;2619;47.868;11.892;2022-08-19T08:14:29;22.40;99.90
5200;DHT22;2619;47.868;11.892;2022-08-19T08:16:55;22.30;99.90
5200;DHT22;2619;47.868;11.892;2022-08-19T08:19:23;22.30;99.90
5200;DHT22;2619;47.868;11.892;2022-08-19T08:21:50;22.30;99.90
5200;DHT22;2619;47.868;11.892;2022-08-19T08:24:17;22.40;99.90
5200;DHT22;2619;47.868;11.892;2022-08-19T08:26:43;22.30;99.90
5200;DHT22;2619;47.868;11.892;2022-08-19T08:29:10;22.30;99.90
5200;DHT22;2619;47.868;11.892;2022-08-19T08:31:38;22.30;99.90
5200;DHT22;2619;47.868;11.892;2022-08-19T08:34:04;22.20;99.90
5200;DHT22;2619;47.868;11.892;2022-08-19T08:36:30;22.30;99.90
5200;DHT22;2619;47.868;11.892;2022-08-19T08:38:59;22.20;99.90
5200;DHT22;2619;47.868;11.892;2022-08-19T08:43:58;22.30;99.90
5200;DHT22;2619;47.868;11.892;2022-08-19T08:46:35;22.10;99.90
5200;DHT22;2619;47.868;11.892;2022-08-19T08:49:08;22.10;99.90
5200;DHT22;2619;47.868;11.892;2022-08-19T08:51:40;22.40;99.90
5200;DHT22;2619;47.868;11.892;2022-08-19T08:54:10;23.00;99.90
5200;DHT22;2619;47.868;11.892;2022-08-19T08:56:41;23.50;99.90
5200;DHT22;2619;47.868;11.892;2022-08-19T08:59:30;24.10;99.90
5200;DHT22;2619;47.868;11.892;2022-08-19T09:01:58;24.60;99.90
5200;DHT22;2619;47.868;11.892;2022-08-19T09:04:24;25.10;99.90
5200;DHT22;2619;47.868;11.892;2022-08-19T09:09:41;26.00;99.90
5200;DHT22;2619;47.868;11.892;2022-08-19T09:12:14;25.90;99.90
5200;DHT22;2619;47.868;11.892;2022-08-19T09:14:56;25.70;99.90
5200;DHT22;2619;47.868;11.892;2022-08-19T09:17:26;25.60;99.90
5200;DHT22;2619;47.868;11.892;2022-08-19T09:22:41;25.60;99.90
5200;DHT22;2619;47.868;11.892;2022-08-19T09:25:12;25.30;99.90
5200;DHT22;2619;47.868;11.892;2022-08-19T09:27:39;25.10;99.90
5200;DHT22;2619;47.868;11.892;2022-08-19T09:30:07;24.90;99.90
5200;DHT22;2619;47.868;11.892;2022-08-19T09:32:33;25.10;99.90
5200;DHT22;2619;47.868;11.892;2022-08-19T09:34:59;25.20;99.90
5200;DHT22;2619;47.868;11.892;2022-08-19T09:37:25;25.40;99.90
5200;DHT22;2619;47.868;11.892;2022-08-19T09:39:51;25.30;99.90
5200;DHT22;2619;47.868;11.892;2022-08-19T09:42:17;25.30;99.90
5200;DHT22;2619;47.868;11.892;2022-08-19T09:44:43;25.50;99.90
5200;DHT22;2619;47.868;11.892;2022-08-19T09:47:11;25.80;99.90
5200;DHT22;2619;47.868;11.892;2022-08-19T09:49:37;26.10;99.90
5200;DHT22;2619;47.868;11.892;2022-08-19T09:52:05;26.60;99.90
5200;DHT22;2619;47.868;11.892;2022-08-19T09:54:30;26.60;99.90
5200;DHT22;2619;47.868;11.892;2022-08-19T09:56:58;26.50;99.90
5200;DHT22;2619;47.868;11.892;2022-08-19T09:59:26;26.80;99.90
5200;DHT22;2619;47.868;11.892;2022-08-19T10:01:52;27.20;99.90
5200;DHT22;2619;47.868;11.892;2022-08-19T10:04:18;27.30;99.90
5200;DHT22;2619;47.868;11.892;2022-08-19T10:06:44;27.30;99.90
5200;DHT22;2619;47.868;11.892;2022-08-19T10:09:13;26.70;99.90
5200;DHT22;2619;47.868;11.892;2022-08-19T10:11:41;26.20;99.90
5200;DHT22;2619;47.868;11.892;2022-08-19T10:14:07;25.80;99.90
5200;DHT22;2619;47.868;11.892;2022-08-19T10:16:33;25.20;99.90
5200;DHT22;2619;47.868;11.892;2022-08-19T10:19:00;24.70;99.90
5200;DHT22;2619;47.868;11.892;2022-08-19T10:21:29;25.10;99.90
5200;DHT22;2619;47.868;11.892;2022-08-19T10:23:57;25.70;99.90
5200;DHT22;2619;47.868;11.892;2022-08-19T10:26:29;25.90;99.90
5200;DHT22;2619;47.868;11.892;2022-08-19T10:28:56;26.10;99.90
5200;DHT22;2619;47.868;11.892;2022-08-19T10:31:25;25.80;99.90
5200;DHT22;2619;47.868;11.892;2022-08-19T10:33:51;25.20;99.90
5200;DHT22;2619;47.868;11.892;2022-08-19T10:36:29;24.90;99.90
5200;DHT22;2619;47.868;11.892;2022-08-19T10:38:57;24.70;99.90
5200;DHT22;2619;47.868;11.892;2022-08-19T10:41:26;24.60;99.90
5200;DHT22;2619;47.868;11.892;2022-08-19T10:43:54;24.70;99.90
5200;DHT22;2619;47.868;11.892;2022-08-19T10:46:22;24.60;99.90
5200;DHT22;2619;47.868;11.892;2022-08-19T10:48:49;25.00;99.90
5200;DHT22;2619;47.868;11.892;2022-08-19T10:51:16;25.30;99.90
5200;DHT22;2619;47.868;11.892;2022-08-19T10:54:00;25.60;99.90
5200;DHT22;2619;47.868;11.892;2022-08-19T10:56:27;26.10;99.90
5200;DHT22;2619;47.868;11.892;2022-08-19T10:59:11;26.30;99.90
5200;DHT22;2619;47.868;11.892;2022-08-19T11:01:41;26.20;99.90
5200;DHT22;2619;47.868;11.892;2022-08-19T11:04:07;26.10;99.90
5200;DHT22;2619;47.868;11.892;2022-08-19T11:06:40;26.20;99.90
5200;DHT22;2619;47.868;11.892;2022-08-19T11:09:07;26.20;99.90
5200;DHT22;2619;47.868;11.892;2022-08-19T11:11:33;26.20;99.90
5200;DHT22;2619;47.868;11.892;2022-08-19T11:14:06;26.50;99.90
5200;DHT22;2619;47.868;11.892;2022-08-19T11:16:32;26.50;99.90
5200;DHT22;2619;47.868;11.892;2022-08-19T11:18:59;26.50;99.90
5200;DHT22;2619;47.868;11.892;2022-08-19T11:21:32;26.60;99.90
5200;DHT22;2619;47.868;11.892;2022-08-19T11:24:07;26.70;99.90
5200;DHT22;2619;47.868;11.892;2022-08-19T11:26:33;26.80;99.90
5200;DHT22;2619;47.868;11.892;2022-08-19T11:28:59;27.10;99.90
5200;DHT22;2619;47.868;11.892;2022-08-19T11:31:28;27.40;99.90
5200;DHT22;2619;47.868;11.892;2022-08-19T11:34:01;27.50;99.90
5200;DHT22;2619;47.868;11.892;2022-08-19T11:36:28;27.60;99.90
5200;DHT22;2619;47.868;11.892;2022-08-19T11:38:54;27.80;99.90
5200;DHT22;2619;47.868;11.892;2022-08-19T11:41:21;27.50;99.90
5200;DHT22;2619;47.868;11.892;2022-08-19T11:43:54;27.40;99.90
5200;DHT22;2619;47.868;11.892;2022-08-19T11:46:21;27.40;99.90
5200;DHT22;2619;47.868;11.892;2022-08-19T11:48:48;27.30;99.90
5200;DHT22;2619;47.868;11.892;2022-08-19T11:51:18;26.90;99.90
5200;DHT22;2619;47.868;11.892;2022-08-19T11:53:44;26.80;99.90
5200;DHT22;2619;47.868;11.892;2022-08-19T11:56:11;26.70;99.90
5200;DHT22;2619;47.868;11.892;2022-08-19T11:58:39;26.70;99.90
5200;DHT22;2619;47.868;11.892;2022-08-19T12:01:11;26.60;99.90
5200;DHT22;2619;47.868;11.892;2022-08-19T12:03:37;26.80;99.90
5200;DHT22;2619;47.868;11.892;2022-08-19T12:06:05;27.10;99.90
5200;DHT22;2619;47.868;11.892;2022-08-19T12:08:31;27.20;99.90
5200;DHT22;2619;47.868;11.892;2022-08-19T12:10:57;27.30;99.90
5200;DHT22;2619;47.868;11.892;2022-08-19T12:13:22;27.00;99.90
5200;DHT22;2619;47.868;11.892;2022-08-19T12:15:48;27.20;99.90
5200;DHT22;2619;47.868;11.892;2022-08-19T12:18:13;27.10;99.90
5200;DHT22;2619;47.868;11.892;2022-08-19T12:20:41;27.10;99.90
5200;DHT22;2619;47.868;11.892;2022-08-19T12:23:08;27.10;99.90
5200;DHT22;2619;47.868;11.892;2022-08-19T12:25:43;27.10;99.90
5200;DHT22;2619;47.868;11.892;2022-08-19T12:28:13;27.20;99.90
5200;DHT22;2619;47.868;11.892;2022-08-19T12:30:39;27.00;99.90
5200;DHT22;2619;47.868;11.892;2022-08-19T12:33:04;27.00;99.90
5200;DHT22;2619;47.868;11.892;2022-08-19T12:35:30;26.80;99.90
5200;DHT22;2619;47.868;11.892;2022-08-19T12:37:56;26.70;99.90
5200;DHT22;2619;47.868;11.892;2022-08-19T12:40:21;26.60;99.90
5200;DHT22;2619;47.868;11.892;2022-08-19T12:42:47;26.60;99.90
5200;DHT22;2619;47.868;11.892;2022-08-19T12:45:15;26.70;99.90
5200;DHT22;2619;47.868;11.892;2022-08-19T12:47:41;26.50;99.90
5200;DHT22;2619;47.868;11.892;2022-08-19T12:50:07;26.30;99.90
5200;DHT22;2619;47.868;11.892;2022-08-19T12:52:34;26.40;99.90
5200;DHT22;2619;47.868;11.892;2022-08-19T12:55:02;26.70;99.90
5200;DHT22;2619;47.868;11.892;2022-08-19T12:57:28;26.90;99.90
5200;DHT22;2619;47.868;11.892;2022-08-19T12:59:54;26.60;99.90
5200;DHT22;2619;47.868;11.892;2022-08-19T13:02:20;26.30;99.90
5200;DHT22;2619;47.868;11.892;2022-08-19T13:04:46;26.10;99.90
5200;DHT22;2619;47.868;11.892;2022-08-19T13:07:12;25.80;99.90
5200;DHT22;2619;47.868;11.892;2022-08-19T13:09:37;26.10;99.90
5200;DHT22;2619;47.868;11.892;2022-08-19T13:12:06;26.70;99.90
5200;DHT22;2619;47.868;11.892;2022-08-19T13:14:39;27.00;99.90
5200;DHT22;2619;47.868;11.892;2022-08-19T13:17:05;27.10;99.90
5200;DHT22;2619;47.868;11.892;2022-08-19T13:19:31;26.90;99.90
5200;DHT22;2619;47.868;11.892;2022-08-19T13:21:57;26.70;99.90
5200;DHT22;2619;47.868;11.892;2022-08-19T13:24:23;26.50;99.90
5200;DHT22;2619;47.868;11.892;2022-08-19T13:26:48;25.90;99.90
5200;DHT22;2619;47.868;11.892;2022-08-19T13:29:14;25.80;99.90
5200;DHT22;2619;47.868;11.892;2022-08-19T13:31:58;25.70;99.90
5200;DHT22;2619;47.868;11.892;2022-08-19T13:34:42;25.70;99.90
5200;DHT22;2619;47.868;11.892;2022-08-19T13:37:08;25.40;99.90
5200;DHT22;2619;47.868;11.892;2022-08-19T13:39:35;25.20;99.90
5200;DHT22;2619;47.868;11.892;2022-08-19T13:42:02;24.80;99.90
5200;DHT22;2619;47.868;11.892;2022-08-19T13:44:29;24.80;99.90
5200;DHT22;2619;47.868;11.892;2022-08-19T13:47:00;24.60;99.90
5200;DHT22;2619;47.868;11.892;2022-08-19T13:49:30;24.60;99.90
5200;DHT22;2619;47.868;11.892;2022-08-19T13:51:56;24.50;99.90
5200;DHT22;2619;47.868;11.892;2022-08-19T13:54:22;24.60;99.90
5200;DHT22;2619;47.868;11.892;2022-08-19T13:56:48;24.80;99.90
5200;DHT22;2619;47.868;11.892;2022-08-19T13:59:13;25.20;99.90
5200;DHT22;2619;47.868;11.892;2022-08-19T14:01:40;25.50;99.90
5200;DHT22;2619;47.868;11.892;2022-08-19T14:04:06;25.50;99.90
5200;DHT22;2619;47.868;11.892;2022-08-19T14:06:32;25.50;99.90
5200;DHT22;2619;47.868;11.892;2022-08-19T14:08:58;25.50;99.90
5200;DHT22;2619;47.868;11.892;2022-08-19T14:11:24;25.60;99.90
5200;DHT22;2619;47.868;11.892;2022-08-19T14:13:50;25.60;99.90
5200;DHT22;2619;47.868;11.892;2022-08-19T14:16:16;25.90;99.90
5200;DHT22;2619;47.868;11.892;2022-08-19T14:18:43;26.10;99.90
5200;DHT22;2619;47.868;11.892;2022-08-19T14:21:15;26.10;99.90
5200;DHT22;2619;47.868;11.892;2022-08-19T14:23:41;26.10;99.90
5200;DHT22;2619;47.868;11.892;2022-08-19T14:26:12;25.80;99.90
5200;DHT22;2619;47.868;11.892;2022-08-19T14:28:39;25.30;99.90
5200;DHT22;2619;47.868;11.892;2022-08-19T14:31:10;25.10;99.90
5200;DHT22;2619;47.868;11.892;2022-08-19T14:33:36;24.90;99.90
5200;DHT22;2619;47.868;11.892;2022-08-19T14:36:02;24.80;99.90
5200;DHT22;2619;47.868;11.892;2022-08-19T14:38:28;24.90;99.90
5200;DHT22;2619;47.868;11.892;2022-08-19T14:43:33;24.90;99.90
5200;DHT22;2619;47.868;11.892;2022-08-19T14:45:59;25.00;99.90
5200;DHT22;2619;47.868;11.892;2022-08-19T14:48:25;25.10;99.90
5200;DHT22;2619;47.868;11.892;2022-08-19T14:50:51;25.30;99.90
5200;DHT22;2619;47.868;11.892;2022-08-19T14:53:17;25.10;99.90
5200;DHT22;2619;47.868;11.892;2022-08-19T14:55:44;25.10;99.90
5200;DHT22;2619;47.868;11.892;2022-08-19T14:58:10;24.90;99.90
5200;DHT22;2619;47.868;11.892;2022-08-19T15:00:36;24.80;99.90
5200;DHT22;2619;47.868;11.892;2022-08-19T15:03:02;24.50;99.90
5200;DHT22;2619;47.868;11.892;2022-08-19T15:05:27;24.40;99.90
5200;DHT22;2619;47.868;11.892;2022-08-19T15:07:53;24.20;99.90
5200;DHT22;2619;47.868;11.892;2022-08-19T15:10:20;24.10;99.90
5200;DHT22;2619;47.868;11.892;2022-08-19T15:12:48;24.10;99.90
5200;DHT22;2619;47.868;11.892;2022-08-19T15:15:14;24.10;99.90
5200;DHT22;2619;47.868;11.892;2022-08-19T15:17:43;24.20;99.90
5200;DHT22;2619;47.868;11.892;2022-08-19T15:20:10;24.30;99.90
5200;DHT22;2619;47.868;11.892;2022-08-19T15:22:36;24.50;99.90
5200;DHT22;2619;47.868;11.892;2022-08-19T15:25:04;24.40;99.90
5200;DHT22;2619;47.868;11.892;2022-08-19T15:27:30;24.50;99.90
5200;DHT22;2619;47.868;11.892;2022-08-19T15:29:56;24.50;99.90
5200;DHT22;2619;47.868;11.892;2022-08-19T15:32:22;24.40;99.90
5200;DHT22;2619;47.868;11.892;2022-08-19T15:34:48;24.40;99.90
5200;DHT22;2619;47.868;11.892;2022-08-19T15:37:14;24.30;99.90
5200;DHT22;2619;47.868;11.892;2022-08-19T15:39:40;24.50;99.90
5200;DHT22;2619;47.868;11.892;2022-08-19T15:42:06;25.00;99.90
5200;DHT22;2619;47.868;11.892;2022-08-19T15:44:32;25.30;99.90
5200;DHT22;2619;47.868;11.892;2022-08-19T15:46:58;25.40;99.90
5200;DHT22;2619;47.868;11.892;2022-08-19T15:49:24;25.00;99.90
5200;DHT22;2619;47.868;11.892;2022-08-19T15:51:50;24.80;99.90
5200;DHT22;2619;47.868;11.892;2022-08-19T15:54:25;24.50;99.90
5200;DHT22;2619;47.868;11.892;2022-08-19T15:56:51;24.40;99.90
5200;DHT22;2619;47.868;11.892;2022-08-19T15:59:37;24.40;99.90